createdAt,value
2022-10-24T00:00:06.651Z,15.30
2022-10-24T00:02:09.752Z,15.20
2022-10-24T00:04:14.720Z,15.20
2022-10-24T00:06:17.839Z,15.20
2022-10-24T00:08:20.158Z,15.20
2022-10-24T00:10:22.598Z,15.20
2022-10-24T00:12:24.876Z,15.30
2022-10-24T00:14:28.185Z,15.20
2022-10-24T00:16:30.521Z,15.20
2022-10-24T00:18:32.865Z,15.20
2022-10-24T00:20:38.407Z,15.10
2022-10-24T00:22:42.226Z,15.10
2022-10-24T00:24:44.699Z,15.10
2022-10-24T00:26:47.047Z,15.00
2022-10-24T00:28:49.460Z,15.10
2022-10-24T00:30:52.585Z,15.10
2022-10-24T00:32:55.062Z,15.10
2022-10-24T00:34:57.639Z,15.10
2022-10-24T00:37:03.007Z,15.10
2022-10-24T00:39:07.154Z,15.10
2022-10-24T00:41:10.658Z,15.40
2022-10-24T00:43:16.564Z,15.10
2022-10-24T00:45:39.783Z,15.40
2022-10-24T00:47:42.301Z,15.10
2022-10-24T00:49:48.377Z,15.00
2022-10-24T00:51:54.255Z,15.10
2022-10-24T00:54:02.982Z,15.10
2022-10-24T00:56:07.880Z,15.00
2022-10-24T00:58:11.109Z,15.00
2022-10-24T01:00:16.944Z,15.00
2022-10-24T01:02:19.171Z,15.00
2022-10-24T01:04:21.645Z,15.00
2022-10-24T01:06:41.496Z,15.00
2022-10-24T01:08:47.783Z,15.00
2022-10-24T01:11:01.554Z,15.10
2022-10-24T01:13:14.643Z,15.20
2022-10-24T01:15:22.326Z,15.00
2022-10-24T01:17:33.458Z,14.90
2022-10-24T01:20:03.544Z,14.90
2022-10-24T01:22:10.778Z,15.20
2022-10-24T01:24:36.645Z,14.90
2022-10-24T01:27:17.498Z,14.90
2022-10-24T01:29:34.782Z,15.00
2022-10-24T01:31:49.597Z,14.90
2022-10-24T01:34:01.263Z,15.00
2022-10-24T01:36:07.313Z,14.90
2022-10-24T01:38:16.886Z,15.00
2022-10-24T01:40:23.853Z,15.00
2022-10-24T01:42:28.169Z,14.90
2022-10-24T01:44:38.332Z,15.00
2022-10-24T01:46:48.590Z,15.20
2022-10-24T01:48:56.649Z,15.70
2022-10-24T01:51:01.776Z,15.00
2022-10-24T01:53:06.880Z,15.00
2022-10-24T01:55:10.372Z,15.10
2022-10-24T01:57:14.548Z,15.20
2022-10-24T01:59:31.324Z,15.20
2022-10-24T02:01:37.399Z,15.20
2022-10-24T02:03:45.496Z,15.30
2022-10-24T02:05:52.249Z,15.30
2022-10-24T02:07:57.760Z,15.30
2022-10-24T02:10:07.141Z,15.50
2022-10-24T02:12:12.433Z,15.30
2022-10-24T02:14:19.301Z,15.40
2022-10-24T02:16:21.872Z,15.30
2022-10-24T02:18:27.660Z,15.30
2022-10-24T02:20:33.638Z,15.30
2022-10-24T02:22:45.879Z,15.40
2022-10-24T02:24:53.258Z,15.30
2022-10-24T02:26:58.328Z,15.30
2022-10-24T02:29:04.812Z,15.60
2022-10-24T02:31:11.327Z,15.30
2022-10-24T02:33:14.980Z,15.30
2022-10-24T02:35:23.220Z,15.30
2022-10-24T02:37:27.562Z,15.30
2022-10-24T02:39:31.775Z,15.40
2022-10-24T02:41:35.793Z,15.40
2022-10-24T02:43:40.241Z,15.40
2022-10-24T02:45:42.506Z,15.80
2022-10-24T02:47:46.549Z,15.40
2022-10-24T02:49:48.871Z,15.40
2022-10-24T02:51:54.596Z,15.40
2022-10-24T02:53:58.037Z,15.40
2022-10-24T02:56:00.255Z,15.40
2022-10-24T02:58:02.485Z,15.40
2022-10-24T03:00:06.354Z,15.40
2022-10-24T03:02:09.033Z,15.40
2022-10-24T03:04:12.158Z,15.60
2022-10-24T03:06:14.702Z,15.80
2022-10-24T03:08:19.659Z,15.40
2022-10-24T03:10:21.892Z,15.40
2022-10-24T03:12:25.145Z,15.40
2022-10-24T03:14:27.672Z,15.40
2022-10-24T03:16:29.934Z,15.40
2022-10-24T03:18:32.363Z,15.70
2022-10-24T03:20:34.806Z,15.40
2022-10-24T03:22:37.107Z,15.70
2022-10-24T03:24:55.163Z,15.40
2022-10-24T03:26:58.530Z,15.40
2022-10-24T03:29:00.766Z,16.00
2022-10-24T03:31:04.267Z,15.50
2022-10-24T03:33:06.505Z,15.50
2022-10-24T03:35:11.822Z,16.00
2022-10-24T03:37:16.388Z,15.50
2022-10-24T03:39:18.574Z,15.80
2022-10-24T03:41:23.425Z,15.60
2022-10-24T03:43:25.703Z,15.60
2022-10-24T03:45:28.069Z,15.60
2022-10-24T03:47:30.280Z,15.60
2022-10-24T03:49:32.569Z,15.80
2022-10-24T03:51:34.773Z,15.60
2022-10-24T03:53:37.231Z,15.70
2022-10-24T03:55:39.519Z,15.70
2022-10-24T03:57:44.694Z,15.70
2022-10-24T03:59:47.127Z,15.70
2022-10-24T04:01:49.859Z,15.70
2022-10-24T04:03:52.192Z,15.70
2022-10-24T04:05:54.607Z,15.80
2022-10-24T04:07:56.959Z,15.60
2022-10-24T04:09:59.186Z,15.60
2022-10-24T04:12:01.490Z,15.60
2022-10-24T04:14:06.497Z,15.60
2022-10-24T04:16:09.400Z,15.60
2022-10-24T04:18:11.661Z,15.60
2022-10-24T04:20:13.999Z,15.50
2022-10-24T04:22:16.494Z,15.90
2022-10-24T04:24:18.997Z,15.50
2022-10-24T04:26:21.340Z,15.50
2022-10-24T04:28:24.314Z,15.80
2022-10-24T04:30:29.909Z,15.40
2022-10-24T04:32:32.180Z,15.30
2022-10-24T04:34:36.440Z,15.40
2022-10-24T04:36:38.763Z,15.30
2022-10-24T04:38:41.090Z,15.30
2022-10-24T04:40:46.287Z,15.70
2022-10-24T04:42:48.546Z,15.20
2022-10-24T04:44:51.017Z,15.20
2022-10-24T04:46:55.873Z,15.20
2022-10-24T04:48:58.167Z,15.20
2022-10-24T04:51:00.711Z,15.20
2022-10-24T04:53:03.293Z,15.40
2022-10-24T04:55:06.320Z,15.10
2022-10-24T04:57:08.654Z,15.10
2022-10-24T04:59:10.896Z,15.10
2022-10-24T05:01:15.865Z,15.10
2022-10-24T05:03:23.218Z,15.10
2022-10-24T05:05:25.566Z,15.10
2022-10-24T05:07:29.274Z,15.00
2022-10-24T05:09:31.698Z,15.30
2022-10-24T05:11:34.149Z,15.00
2022-10-24T05:13:37.251Z,15.20
2022-10-24T05:15:39.645Z,15.00
2022-10-24T05:17:45.005Z,15.00
2022-10-24T05:19:51.062Z,15.00
2022-10-24T05:21:53.305Z,14.90
2022-10-24T05:23:58.034Z,14.90
2022-10-24T05:26:00.321Z,15.40
2022-10-24T05:28:03.095Z,15.10
2022-10-24T05:30:07.909Z,15.00
2022-10-24T05:32:12.700Z,15.20
2022-10-24T05:34:15.160Z,15.00
2022-10-24T05:36:20.253Z,15.00
2022-10-24T05:38:22.963Z,14.90
2022-10-24T05:40:25.150Z,14.90
2022-10-24T05:42:27.370Z,14.90
2022-10-24T05:44:29.940Z,15.20
2022-10-24T05:46:32.213Z,14.90
2022-10-24T05:48:34.578Z,14.80
2022-10-24T05:50:37.029Z,14.80
2022-10-24T05:52:46.211Z,14.80
2022-10-24T05:55:02.575Z,15.20
2022-10-24T05:57:08.888Z,14.80
2022-10-24T05:59:11.265Z,14.80
2022-10-24T06:01:13.731Z,14.90
2022-10-24T06:03:16.352Z,14.90
2022-10-24T06:05:19.893Z,14.80
2022-10-24T06:07:24.455Z,14.90
2022-10-24T06:09:31.070Z,14.90
2022-10-24T06:11:35.583Z,14.90
2022-10-24T06:13:39.096Z,14.90
2022-10-24T06:15:41.697Z,15.10
2022-10-24T06:17:44.057Z,14.90
2022-10-24T06:19:46.372Z,14.90
2022-10-24T06:21:48.879Z,14.90
2022-10-24T06:23:51.726Z,14.90
2022-10-24T06:25:56.902Z,15.00
2022-10-24T06:27:59.489Z,15.00
2022-10-24T06:30:01.738Z,15.00
2022-10-24T06:32:04.963Z,15.60
2022-10-24T06:34:07.269Z,15.00
2022-10-24T06:36:11.131Z,15.10
2022-10-24T06:38:17.372Z,15.00
2022-10-24T06:40:19.647Z,15.10
2022-10-24T06:42:24.572Z,15.00
2022-10-24T06:44:29.794Z,15.00
2022-10-24T06:46:32.090Z,15.10
2022-10-24T06:48:34.458Z,15.10
2022-10-24T06:50:39.751Z,15.10
2022-10-24T06:52:42.087Z,15.10
2022-10-24T06:54:44.280Z,15.10
2022-10-24T06:56:46.543Z,15.20
2022-10-24T06:58:51.501Z,15.20
2022-10-24T07:00:53.798Z,15.20
2022-10-24T07:02:56.096Z,15.70
2022-10-24T07:04:58.499Z,15.30
2022-10-24T07:07:00.845Z,15.30
2022-10-24T07:09:04.886Z,15.40
2022-10-24T07:11:07.130Z,15.50
2022-10-24T07:13:09.413Z,15.50
2022-10-24T07:15:14.375Z,15.50
2022-10-24T07:17:17.882Z,15.60
2022-10-24T07:19:20.154Z,15.80
2022-10-24T07:21:23.824Z,15.60
2022-10-24T07:23:27.881Z,15.60
2022-10-24T07:25:30.181Z,15.60
2022-10-24T07:27:33.782Z,15.60
2022-10-24T07:29:38.851Z,15.70
2022-10-24T07:31:43.674Z,15.70
2022-10-24T07:33:46.733Z,15.80
2022-10-24T07:35:49.055Z,15.70
2022-10-24T07:37:52.136Z,15.50
2022-10-24T07:39:54.549Z,15.70
2022-10-24T07:41:56.843Z,15.70
2022-10-24T07:43:59.987Z,15.70
2022-10-24T07:46:06.384Z,15.70
2022-10-24T07:48:11.402Z,15.70
2022-10-24T07:50:16.933Z,15.70
2022-10-24T07:52:19.177Z,15.70
2022-10-24T07:56:24.717Z,15.70
2022-10-24T07:58:27.011Z,15.70
2022-10-24T08:00:29.239Z,15.80
2022-10-24T08:02:33.013Z,15.80
2022-10-24T08:04:37.817Z,15.90
2022-10-24T08:06:44.817Z,15.90
2022-10-24T08:08:47.370Z,15.90
2022-10-24T08:10:49.752Z,16.00
2022-10-24T08:12:52.136Z,16.00
2022-10-24T08:14:55.882Z,16.10
2022-10-24T08:16:58.128Z,16.20
2022-10-24T08:19:00.453Z,16.20
2022-10-24T08:21:07.467Z,16.30
2022-10-24T08:23:09.750Z,16.40
2022-10-24T08:25:14.279Z,16.40
2022-10-24T08:27:16.537Z,16.40
2022-10-24T08:29:25.551Z,16.40
2022-10-24T08:31:30.088Z,16.40
2022-10-24T08:33:32.632Z,16.40
2022-10-24T08:35:35.940Z,16.40
2022-10-24T08:37:40.813Z,16.40
2022-10-24T08:39:46.101Z,16.40
2022-10-24T08:41:51.090Z,16.30
2022-10-24T08:43:54.315Z,16.30
2022-10-24T08:46:08.178Z,16.30
2022-10-24T08:48:14.632Z,16.30
2022-10-24T08:50:23.894Z,16.20
2022-10-24T08:52:33.385Z,16.20
2022-10-24T08:54:41.643Z,16.10
2022-10-24T08:56:44.260Z,16.10
2022-10-24T08:58:47.203Z,16.10
2022-10-24T09:00:52.369Z,16.10
2022-10-24T09:03:00.195Z,16.00
2022-10-24T09:05:07.292Z,16.00
2022-10-24T09:07:16.637Z,16.00
2022-10-24T09:09:24.123Z,15.90
2022-10-24T09:11:38.626Z,15.90
2022-10-24T09:13:40.827Z,15.90
2022-10-24T09:15:45.270Z,15.80
2022-10-24T09:17:48.650Z,15.80
2022-10-24T09:19:53.716Z,15.80
2022-10-24T09:21:58.039Z,15.90
2022-10-24T09:24:01.051Z,15.90
2022-10-24T09:26:05.859Z,15.90
2022-10-24T09:28:12.199Z,15.80
2022-10-24T09:30:17.793Z,15.80
2022-10-24T09:32:23.358Z,15.80
2022-10-24T09:34:25.916Z,15.90
2022-10-24T09:36:30.481Z,15.80
2022-10-24T09:38:35.023Z,15.80
2022-10-24T09:40:38.366Z,15.80
2022-10-24T09:42:47.543Z,15.80
2022-10-24T09:44:57.330Z,16.10
2022-10-24T09:46:59.812Z,15.80
2022-10-24T09:49:05.027Z,15.90
2022-10-24T09:51:10.645Z,16.10
2022-10-24T09:53:24.076Z,16.20
2022-10-24T09:55:32.052Z,16.30
2022-10-24T09:57:39.804Z,16.30
2022-10-24T09:59:47.016Z,16.50
2022-10-24T10:01:52.068Z,16.40
2022-10-24T10:04:07.567Z,16.60
2022-10-24T10:06:17.862Z,16.70
2022-10-24T10:08:22.202Z,16.70
2022-10-24T10:10:28.211Z,16.70
2022-10-24T10:12:34.719Z,16.80
2022-10-24T10:14:41.742Z,16.70
2022-10-24T10:16:57.755Z,16.70
2022-10-24T10:19:14.612Z,16.60
2022-10-24T10:21:19.569Z,16.60
2022-10-24T10:23:29.634Z,16.60
2022-10-24T10:25:32.809Z,16.50
2022-10-24T10:27:36.640Z,16.50
2022-10-24T10:29:38.873Z,16.50
2022-10-24T10:31:44.142Z,16.50
2022-10-24T10:33:55.632Z,16.40
2022-10-24T10:36:08.540Z,16.50
2022-10-24T10:38:29.468Z,16.50
2022-10-24T10:40:34.490Z,16.50
2022-10-24T10:42:44.959Z,16.60
2022-10-24T10:45:03.378Z,16.50
2022-10-24T10:47:13.565Z,16.40
2022-10-24T10:49:23.080Z,16.40
2022-10-24T10:51:39.819Z,16.20
2022-10-24T10:53:47.772Z,16.20
2022-10-24T10:55:58.073Z,16.20
2022-10-24T10:58:06.968Z,16.30
2022-10-24T11:00:19.382Z,16.30
2022-10-24T11:02:43.757Z,16.20
2022-10-24T11:04:51.817Z,16.20
2022-10-24T11:07:03.219Z,16.30
2022-10-24T11:09:20.861Z,16.40
2022-10-24T11:11:27.923Z,16.50
2022-10-24T11:13:34.791Z,16.60
2022-10-24T11:15:42.227Z,16.70
2022-10-24T11:17:51.693Z,16.90
2022-10-24T11:20:03.143Z,16.80
2022-10-24T11:22:15.827Z,16.90
2022-10-24T11:24:22.797Z,16.90
2022-10-24T11:26:31.475Z,17.20
2022-10-24T11:28:41.254Z,16.80
2022-10-24T11:30:49.826Z,16.80
2022-10-24T11:32:58.161Z,16.80
2022-10-24T11:35:05.273Z,16.80
2022-10-24T11:37:16.225Z,16.80
2022-10-24T11:39:23.842Z,16.80
2022-10-24T11:41:43.362Z,16.80
2022-10-24T11:43:47.627Z,16.70
2022-10-24T11:45:52.204Z,16.70
2022-10-24T11:48:02.096Z,16.70
2022-10-24T11:50:11.562Z,16.70
2022-10-24T11:52:22.079Z,16.80
2022-10-24T11:54:29.200Z,16.80
2022-10-24T11:56:40.268Z,16.80
2022-10-24T11:58:50.559Z,16.70
2022-10-24T12:01:11.315Z,16.60
2022-10-24T12:03:48.522Z,16.90
2022-10-24T12:06:22.162Z,16.50
2022-10-24T12:08:53.153Z,16.50
2022-10-24T12:11:34.049Z,16.50
2022-10-24T12:13:50.454Z,16.40
2022-10-24T12:15:59.680Z,16.40
2022-10-24T12:18:09.104Z,16.50
2022-10-24T12:20:15.088Z,16.50
2022-10-24T12:22:23.994Z,16.60
2022-10-24T12:24:32.944Z,16.60
2022-10-24T12:26:36.074Z,16.60
2022-10-24T12:28:38.600Z,16.60
2022-10-24T12:30:40.843Z,16.60
2022-10-24T12:32:46.179Z,16.60
2022-10-24T12:35:12.223Z,16.60
2022-10-24T12:37:35.078Z,16.70
2022-10-24T12:39:45.801Z,16.60
2022-10-24T12:41:49.834Z,16.70
2022-10-24T12:44:36.109Z,16.70
2022-10-24T12:46:53.495Z,16.80
2022-10-24T12:49:20.603Z,16.80
2022-10-24T12:51:29.788Z,16.90
2022-10-24T12:53:35.338Z,17.00
2022-10-24T12:56:06.673Z,16.70
2022-10-24T12:58:23.179Z,16.60
2022-10-24T13:00:29.988Z,16.60
2022-10-24T13:03:02.580Z,16.80
2022-10-24T13:05:17.758Z,17.00
2022-10-24T13:07:56.051Z,17.10
2022-10-24T13:10:26.537Z,17.20
2022-10-24T13:12:46.620Z,17.20
2022-10-24T13:15:03.326Z,17.20
2022-10-24T13:17:16.316Z,17.20
2022-10-24T13:19:22.208Z,17.10
2022-10-24T13:21:28.696Z,17.00
2022-10-24T13:23:33.258Z,16.90
2022-10-24T13:25:38.351Z,16.80
2022-10-24T13:27:40.582Z,16.80
2022-10-24T13:30:00.563Z,16.80
2022-10-24T13:32:30.642Z,16.90
2022-10-24T13:34:40.958Z,16.80
2022-10-24T13:36:45.505Z,16.80
2022-10-24T13:38:50.940Z,16.70
2022-10-24T13:40:54.887Z,16.60
2022-10-24T13:43:00.001Z,16.50
2022-10-24T13:45:06.974Z,16.50
2022-10-24T13:47:17.121Z,16.40
2022-10-24T13:49:28.118Z,16.30
2022-10-24T13:51:40.811Z,16.30
2022-10-24T13:53:47.795Z,16.40
2022-10-24T13:55:51.725Z,16.40
2022-10-24T13:57:58.967Z,16.40
2022-10-24T14:00:04.369Z,16.50
2022-10-24T14:02:14.998Z,16.50
2022-10-24T14:04:17.289Z,16.60
2022-10-24T14:06:29.973Z,16.80
2022-10-24T14:08:35.438Z,16.50
2022-10-24T14:10:38.803Z,16.50
2022-10-24T14:12:41.422Z,16.60
2022-10-24T14:14:46.898Z,16.60
2022-10-24T14:17:05.721Z,16.60
2022-10-24T14:19:15.354Z,16.60
2022-10-24T14:21:21.576Z,17.00
2022-10-24T14:23:31.599Z,16.60
2022-10-24T14:25:36.692Z,16.50
2022-10-24T14:27:41.949Z,16.60
2022-10-24T14:29:59.309Z,16.40
2022-10-24T14:32:03.819Z,16.50
2022-10-24T14:34:06.638Z,16.30
2022-10-24T14:36:09.326Z,16.30
2022-10-24T14:38:15.770Z,16.20
2022-10-24T14:40:20.682Z,16.30
2022-10-24T14:42:24.130Z,16.30
2022-10-24T14:44:27.307Z,16.20
2022-10-24T14:46:35.633Z,16.20
2022-10-24T14:48:39.777Z,16.20
2022-10-24T14:50:43.385Z,16.20
2022-10-24T14:52:47.050Z,16.20
2022-10-24T14:54:59.818Z,16.10
2022-10-24T14:57:09.249Z,16.10
2022-10-24T14:59:24.575Z,16.00
2022-10-24T15:01:28.113Z,16.00
2022-10-24T15:03:30.672Z,16.00
2022-10-24T15:05:34.555Z,16.10
2022-10-24T15:07:38.070Z,15.90
2022-10-24T15:09:55.168Z,15.90
2022-10-24T15:12:02.343Z,15.90
2022-10-24T15:14:38.246Z,15.80
2022-10-24T15:16:42.107Z,15.80
2022-10-24T15:18:44.907Z,15.70
2022-10-24T15:20:48.531Z,15.70
2022-10-24T15:22:54.956Z,15.90
2022-10-24T15:24:59.724Z,15.70
2022-10-24T15:27:12.897Z,15.60
2022-10-24T15:29:20.293Z,15.60
2022-10-24T15:31:27.784Z,15.50
2022-10-24T15:33:30.120Z,15.40
2022-10-24T15:35:37.683Z,15.50
2022-10-24T15:37:40.070Z,15.40
2022-10-24T15:39:42.450Z,15.50
2022-10-24T15:41:44.615Z,15.30
2022-10-24T15:43:47.536Z,15.30
2022-10-24T15:45:49.942Z,15.30
2022-10-24T15:47:54.994Z,15.20
2022-10-24T15:49:57.198Z,15.10
2022-10-24T15:51:59.754Z,15.00
2022-10-24T15:54:01.968Z,15.00
2022-10-24T15:56:04.422Z,15.00
2022-10-24T15:58:12.493Z,15.00
2022-10-24T16:00:16.721Z,15.00
2022-10-24T16:02:20.032Z,15.00
2022-10-24T16:04:25.159Z,15.00
2022-10-24T16:06:28.026Z,15.00
2022-10-24T16:08:30.968Z,15.10
2022-10-24T16:10:33.168Z,15.00
2022-10-24T16:12:35.440Z,15.10
2022-10-24T16:14:37.617Z,15.00
2022-10-24T16:16:39.882Z,15.00
2022-10-24T16:18:42.307Z,15.10
2022-10-24T16:20:47.425Z,15.00
2022-10-24T16:22:50.113Z,15.10
2022-10-24T16:24:52.374Z,15.00
2022-10-24T16:26:57.499Z,15.10
2022-10-24T16:28:59.779Z,15.00
2022-10-24T16:31:03.600Z,15.00
2022-10-24T16:33:06.374Z,15.00
2022-10-24T16:35:09.276Z,15.00
2022-10-24T16:37:14.200Z,15.00
2022-10-24T16:39:16.503Z,15.00
2022-10-24T16:41:21.502Z,14.90
2022-10-24T16:43:23.799Z,14.90
2022-10-24T16:45:27.016Z,15.30
2022-10-24T16:47:29.684Z,14.80
2022-10-24T16:49:32.206Z,14.70
2022-10-24T16:51:34.440Z,14.80
2022-10-24T16:53:39.523Z,14.70
2022-10-24T16:55:48.367Z,14.60
2022-10-24T16:57:50.941Z,14.60
2022-10-24T16:59:53.227Z,14.60
2022-10-24T17:01:55.529Z,14.60
2022-10-24T17:03:57.749Z,14.50
2022-10-24T17:06:00.481Z,14.60
2022-10-24T17:08:02.705Z,14.40
2022-10-24T17:10:08.761Z,14.40
2022-10-24T17:12:11.412Z,14.40
2022-10-24T17:14:16.593Z,14.40
2022-10-24T17:16:20.868Z,14.40
2022-10-24T17:18:25.398Z,14.40
2022-10-24T17:20:27.799Z,14.40
2022-10-24T17:22:30.562Z,14.40
2022-10-24T17:24:34.552Z,14.30
2022-10-24T17:26:39.787Z,14.30
2022-10-24T17:28:45.107Z,14.30
2022-10-24T17:30:48.062Z,14.30
2022-10-24T17:32:50.817Z,14.20
2022-10-24T17:34:53.741Z,14.20
2022-10-24T17:37:02.789Z,14.20
2022-10-24T17:39:10.338Z,14.30
2022-10-24T17:41:21.237Z,14.10
2022-10-24T17:43:28.199Z,14.30
2022-10-24T17:45:32.335Z,14.10
2022-10-24T17:47:34.965Z,14.10
2022-10-24T17:49:37.238Z,14.10
2022-10-24T17:51:41.131Z,14.00
2022-10-24T17:53:43.511Z,14.00
2022-10-24T17:55:47.553Z,14.00
2022-10-24T17:57:50.558Z,14.00
2022-10-24T17:59:55.472Z,14.00
2022-10-24T18:01:57.922Z,14.20
2022-10-24T18:04:00.235Z,13.90
2022-10-24T18:06:04.382Z,13.90
2022-10-24T18:08:08.428Z,13.90
2022-10-24T18:10:12.076Z,13.90
2022-10-24T18:12:14.326Z,13.90
2022-10-24T18:14:16.596Z,13.80
2022-10-24T18:16:22.081Z,14.30
2022-10-24T18:18:24.546Z,13.80
2022-10-24T18:20:27.048Z,13.80
2022-10-24T18:22:30.065Z,13.80
2022-10-24T18:24:33.313Z,14.00
2022-10-24T18:26:35.612Z,13.70
2022-10-24T18:28:38.460Z,13.70
2022-10-24T18:30:40.763Z,13.70
2022-10-24T18:32:46.437Z,13.70
2022-10-24T18:34:48.830Z,13.60
2022-10-24T18:36:51.069Z,13.60
2022-10-24T18:38:54.953Z,13.70
2022-10-24T18:40:58.951Z,13.60
2022-10-24T18:43:07.505Z,13.60
2022-10-24T18:45:15.776Z,13.60
2022-10-24T18:47:23.262Z,13.60
2022-10-24T18:49:33.455Z,13.50
2022-10-24T18:51:41.427Z,13.50
2022-10-24T18:53:44.026Z,13.50
2022-10-24T18:55:47.149Z,13.50
2022-10-24T18:57:50.362Z,13.50
2022-10-24T18:59:54.422Z,13.50
2022-10-24T19:02:11.157Z,13.50
2022-10-24T19:04:19.135Z,13.50
2022-10-24T19:06:26.036Z,13.70
2022-10-24T19:08:28.617Z,13.50
2022-10-24T19:10:31.027Z,13.50
2022-10-24T19:12:33.464Z,13.50
2022-10-24T19:14:36.286Z,13.50
2022-10-24T19:16:38.668Z,13.40
2022-10-24T19:18:48.622Z,13.40
2022-10-24T19:20:50.945Z,13.40
2022-10-24T19:22:55.764Z,13.40
2022-10-24T19:24:58.071Z,13.40
2022-10-24T19:27:00.526Z,13.40
2022-10-24T19:29:04.956Z,13.40
2022-10-24T19:31:08.670Z,13.40
2022-10-24T19:33:12.011Z,13.40
2022-10-24T19:35:16.267Z,13.40
2022-10-24T19:37:19.507Z,13.40
2022-10-24T19:39:24.338Z,13.40
2022-10-24T19:41:27.411Z,13.40
2022-10-24T19:43:32.762Z,13.30
2022-10-24T19:45:35.708Z,13.70
2022-10-24T19:47:41.788Z,13.30
2022-10-24T19:49:43.968Z,13.30
2022-10-24T19:51:46.135Z,13.30
2022-10-24T19:53:52.250Z,13.30
2022-10-24T19:55:57.051Z,13.30
2022-10-24T19:57:59.256Z,13.30
2022-10-24T20:00:01.530Z,13.30
2022-10-24T20:02:04.011Z,13.30
2022-10-24T20:04:06.213Z,13.30
2022-10-24T20:06:09.382Z,13.30
2022-10-24T20:08:11.549Z,13.30
2022-10-24T20:10:13.933Z,13.20
2022-10-24T20:12:19.084Z,13.20
2022-10-24T20:14:24.498Z,13.20
2022-10-24T20:16:26.734Z,13.20
2022-10-24T20:18:30.401Z,13.20
2022-10-24T20:20:35.328Z,13.20
2022-10-24T20:22:37.821Z,13.20
2022-10-24T20:24:40.143Z,13.20
2022-10-24T20:26:42.329Z,13.30
2022-10-24T20:28:48.734Z,13.20
2022-10-24T20:30:51.757Z,13.20
2022-10-24T20:32:54.497Z,13.20
2022-10-24T20:34:56.667Z,13.10
2022-10-24T20:36:58.941Z,13.10
2022-10-24T20:39:01.529Z,13.10
2022-10-24T20:41:03.962Z,13.10
2022-10-24T20:43:07.343Z,13.00
2022-10-24T20:45:12.436Z,13.00
2022-10-24T20:47:14.615Z,13.00
2022-10-24T20:49:16.847Z,13.00
2022-10-24T20:51:20.942Z,13.00
2022-10-24T20:53:23.187Z,13.00
2022-10-24T20:55:39.437Z,12.90
2022-10-24T20:57:45.979Z,12.90
2022-10-24T20:59:48.233Z,12.90
2022-10-24T21:01:53.281Z,13.00
2022-10-24T21:03:57.591Z,12.90
2022-10-24T21:05:59.523Z,12.90
2022-10-24T21:08:01.717Z,12.80
2022-10-24T21:10:04.822Z,12.80
2022-10-24T21:12:07.054Z,12.80
2022-10-24T21:14:12.099Z,12.80
2022-10-24T21:16:14.673Z,12.80
2022-10-24T21:18:19.507Z,12.80
2022-10-24T21:20:21.797Z,12.70
2022-10-24T21:22:24.201Z,12.70
2022-10-24T21:24:26.362Z,12.70
2022-10-24T21:26:28.653Z,12.70
2022-10-24T21:28:31.068Z,12.70
2022-10-24T21:30:33.707Z,12.70
2022-10-24T21:32:35.923Z,12.70
2022-10-24T21:34:43.642Z,12.70
2022-10-24T21:36:45.939Z,12.60
2022-10-24T21:38:49.743Z,12.70
2022-10-24T21:40:59.939Z,12.90
2022-10-24T21:43:02.514Z,12.60
2022-10-24T21:45:06.742Z,12.60
2022-10-24T21:47:08.930Z,12.60
2022-10-24T21:49:11.464Z,12.60
2022-10-24T21:51:18.494Z,12.60
2022-10-24T21:53:20.716Z,12.50
2022-10-24T21:55:22.917Z,12.60
2022-10-24T21:57:28.447Z,12.50
2022-10-24T21:59:30.630Z,13.20
2022-10-24T22:01:35.343Z,12.50
2022-10-24T22:03:37.783Z,12.40
2022-10-24T22:05:40.076Z,12.40
2022-10-24T22:07:47.463Z,12.60
2022-10-24T22:09:51.845Z,12.40
2022-10-24T22:11:57.687Z,12.40
2022-10-24T22:14:00.871Z,12.40
2022-10-24T22:16:04.183Z,12.40
2022-10-24T22:18:06.527Z,12.30
2022-10-24T22:20:09.990Z,12.30
2022-10-24T22:22:12.210Z,12.30
2022-10-24T22:24:19.341Z,12.30
2022-10-24T22:26:21.666Z,12.30
2022-10-24T22:28:24.199Z,12.30
2022-10-24T22:30:26.363Z,12.30
2022-10-24T22:32:28.874Z,12.30
2022-10-24T22:34:31.899Z,12.30
2022-10-24T22:36:44.378Z,12.30
2022-10-24T22:38:47.263Z,12.30
2022-10-24T22:43:15.539Z,12.20
2022-10-24T22:45:19.580Z,12.20
2022-10-24T22:47:43.423Z,12.20
2022-10-24T22:49:53.910Z,12.20
2022-10-24T22:51:56.771Z,12.20
2022-10-24T22:53:59.597Z,12.30
2022-10-24T22:56:14.873Z,12.30
2022-10-24T22:58:17.716Z,12.30
2022-10-24T23:00:21.315Z,12.30
2022-10-24T23:02:28.962Z,12.30
2022-10-24T23:04:36.155Z,12.20
2022-10-24T23:06:45.985Z,12.20
2022-10-24T23:08:48.168Z,12.20
2022-10-24T23:10:50.997Z,12.20
2022-10-24T23:12:56.688Z,12.20
2022-10-24T23:14:59.447Z,12.20
2022-10-24T23:17:02.064Z,12.20
2022-10-24T23:19:14.352Z,12.20
2022-10-24T23:21:22.511Z,12.20
2022-10-24T23:23:29.289Z,12.20
2022-10-24T23:25:34.781Z,12.20
2022-10-24T23:27:39.488Z,12.20
2022-10-24T23:29:45.983Z,12.20
2022-10-24T23:31:48.630Z,12.20
2022-10-24T23:33:51.489Z,12.20
2022-10-24T23:35:58.015Z,12.30
2022-10-24T23:38:00.977Z,12.30
2022-10-24T23:40:14.454Z,12.30
2022-10-24T23:42:17.128Z,12.30
2022-10-24T23:44:19.918Z,12.40
2022-10-24T23:46:34.738Z,12.40
2022-10-24T23:48:49.232Z,12.40
2022-10-24T23:50:59.472Z,12.40
2022-10-24T23:53:15.123Z,12.30
2022-10-24T23:55:18.443Z,12.40
2022-10-24T23:57:21.431Z,12.30
2022-10-24T23:59:23.701Z,12.30
